sensor_id;sensor_type;location;lat;lon;timestamp;pressure;altitude;pressure_sealevel;temperature;humidity
36600;BME280;35385;55.668;37.508;2023-02-28T00:00:04;99763.63;;;-7.19;100.00
36600;BME280;35385;55.668;37.508;2023-02-28T00:01:14;99777.59;;;-7.32;100.00
36600;BME280;35385;55.668;37.508;2023-02-28T00:02:16;99765.47;;;-7.30;100.00
36600;BME280;35385;55.668;37.508;2023-02-28T00:03:17;99764.34;;;-7.05;100.00
36600;BME280;35385;55.668;37.508;2023-02-28T00:04:18;99769.50;;;-7.02;100.00
36600;BME280;35385;55.668;37.508;2023-02-28T00:05:22;99766.84;;;-6.94;100.00
36600;BME280;35385;55.668;37.508;2023-02-28T00:06:23;99762.88;;;-7.30;100.00
36600;BME280;35385;55.668;37.508;2023-02-28T00:07:24;99769.81;;;-7.35;100.00
36600;BME280;35385;55.668;37.508;2023-02-28T00:08:24;99756.84;;;-7.34;100.00
36600;BME280;35385;55.668;37.508;2023-02-28T00:09:25;99762.03;;;-7.35;100.00
36600;BME280;35385;55.668;37.508;2023-02-28T00:10:28;99738.75;;;-7.41;100.00
36600;BME280;35385;55.668;37.508;2023-02-28T00:11:29;99750.75;;;-7.28;100.00
36600;BME280;35385;55.668;37.508;2023-02-28T00:12:30;99735.25;;;-7.36;100.00
36600;BME280;35385;55.668;37.508;2023-02-28T00:13:31;99754.22;;;-7.29;100.00
36600;BME280;35385;55.668;37.508;2023-02-28T00:14:31;99753.56;;;-7.51;100.00
36600;BME280;35385;55.668;37.508;2023-02-28T00:15:33;99755.19;;;-7.42;100.00
36600;BME280;35385;55.668;37.508;2023-02-28T00:16:33;99756.06;;;-7.43;100.00
36600;BME280;35385;55.668;37.508;2023-02-28T00:17:35;99757.81;;;-7.49;100.00
36600;BME280;35385;55.668;37.508;2023-02-28T00:18:36;99756.19;;;-7.56;100.00
36600;BME280;35385;55.668;37.508;2023-02-28T00:19:37;99750.09;;;-7.52;100.00
36600;BME280;35385;55.668;37.508;2023-02-28T00:20:37;99754.44;;;-7.57;100.00
36600;BME280;35385;55.668;37.508;2023-02-28T00:21:38;99697.66;;;-7.92;100.00
36600;BME280;35385;55.668;37.508;2023-02-28T00:22:43;99754.44;;;-7.55;100.00
36600;BME280;35385;55.668;37.508;2023-02-28T00:23:44;99724.22;;;-7.62;100.00
36600;BME280;35385;55.668;37.508;2023-02-28T00:24:45;99750.03;;;-7.47;100.00
36600;BME280;35385;55.668;37.508;2023-02-28T00:25:47;99744.94;;;-7.56;100.00
36600;BME280;35385;55.668;37.508;2023-02-28T00:26:48;99745.78;;;-7.56;100.00
36600;BME280;35385;55.668;37.508;2023-02-28T00:27:49;99739.69;;;-7.50;100.00
36600;BME280;35385;55.668;37.508;2023-02-28T00:28:52;99740.59;;;-7.53;100.00
36600;BME280;35385;55.668;37.508;2023-02-28T00:29:53;99742.22;;;-7.44;100.00
36600;BME280;35385;55.668;37.508;2023-02-28T00:30:54;99740.59;;;-7.54;100.00
36600;BME280;35385;55.668;37.508;2023-02-28T00:31:55;99722.44;;;-7.54;100.00
36600;BME280;35385;55.668;37.508;2023-02-28T00:32:55;99731.81;;;-7.38;100.00
36600;BME280;35385;55.668;37.508;2023-02-28T00:33:56;99742.09;;;-7.29;100.00
36600;BME280;35385;55.668;37.508;2023-02-28T00:34:56;99734.44;;;-7.44;100.00
36600;BME280;35385;55.668;37.508;2023-02-28T00:36:07;99740.41;;;-7.34;100.00
36600;BME280;35385;55.668;37.508;2023-02-28T00:37:10;99725.78;;;-7.44;100.00
36600;BME280;35385;55.668;37.508;2023-02-28T00:38:13;99731.94;;;-7.52;100.00
36600;BME280;35385;55.668;37.508;2023-02-28T00:39:14;99743.91;;;-7.38;100.00
36600;BME280;35385;55.668;37.508;2023-02-28T00:40:14;99686.16;;;-7.63;100.00
36600;BME280;35385;55.668;37.508;2023-02-28T00:41:15;99661.19;;;-7.72;100.00
36600;BME280;35385;55.668;37.508;2023-02-28T00:42:15;99735.25;;;-7.36;100.00
36600;BME280;35385;55.668;37.508;2023-02-28T00:43:16;99741.25;;;-7.32;100.00
36600;BME280;35385;55.668;37.508;2023-02-28T00:44:16;99742.94;;;-7.27;100.00
36600;BME280;35385;55.668;37.508;2023-02-28T00:45:17;99738.72;;;-7.38;100.00
36600;BME280;35385;55.668;37.508;2023-02-28T00:46:23;99733.47;;;-7.32;100.00
36600;BME280;35385;55.668;37.508;2023-02-28T00:47:24;99739.50;;;-7.30;100.00
36600;BME280;35385;55.668;37.508;2023-02-28T00:48:24;99726.59;;;-7.36;100.00
36600;BME280;35385;55.668;37.508;2023-02-28T00:49:26;99662.88;;;-7.65;100.00
36600;BME280;35385;55.668;37.508;2023-02-28T00:50:26;99715.25;;;-7.28;100.00
36600;BME280;35385;55.668;37.508;2023-02-28T00:51:27;99712.63;;;-7.23;100.00
36600;BME280;35385;55.668;37.508;2023-02-28T00:52:28;99721.22;;;-7.21;100.00
36600;BME280;35385;55.668;37.508;2023-02-28T00:53:28;99707.63;;;-7.44;100.00
36600;BME280;35385;55.668;37.508;2023-02-28T00:54:29;99720.59;;;-7.41;100.00
36600;BME280;35385;55.668;37.508;2023-02-28T00:55:30;99724.09;;;-7.47;100.00
36600;BME280;35385;55.668;37.508;2023-02-28T00:56:30;99724.28;;;-7.68;100.00
36600;BME280;35385;55.668;37.508;2023-02-28T00:57:31;99716.44;;;-7.61;100.00
36600;BME280;35385;55.668;37.508;2023-02-28T00:58:31;99658.00;;;-8.07;100.00
36600;BME280;35385;55.668;37.508;2023-02-28T00:59:32;99714.69;;;-7.59;100.00
36600;BME280;35385;55.668;37.508;2023-02-28T01:00:33;99719.84;;;-7.53;100.00
36600;BME280;35385;55.668;37.508;2023-02-28T01:01:33;99564.94;;;-8.32;100.00
36600;BME280;35385;55.668;37.508;2023-02-28T01:02:34;99694.75;;;-7.54;100.00
36600;BME280;35385;55.668;37.508;2023-02-28T01:03:35;99718.03;;;-7.46;100.00
36600;BME280;35385;55.668;37.508;2023-02-28T01:04:35;99699.34;;;-7.86;100.00
36600;BME280;35385;55.668;37.508;2023-02-28T01:05:36;99721.69;;;-7.65;100.00
36600;BME280;35385;55.668;37.508;2023-02-28T01:06:36;99688.13;;;-7.87;100.00
36600;BME280;35385;55.668;37.508;2023-02-28T01:07:37;99709.69;;;-7.80;100.00
36600;BME280;35385;55.668;37.508;2023-02-28T01:08:38;99666.69;;;-8.08;100.00
36600;BME280;35385;55.668;37.508;2023-02-28T01:09:39;99671.03;;;-8.09;100.00
36600;BME280;35385;55.668;37.508;2023-02-28T01:10:39;99705.41;;;-7.86;100.00
36600;BME280;35385;55.668;37.508;2023-02-28T01:11:41;99703.56;;;-7.74;100.00
36600;BME280;35385;55.668;37.508;2023-02-28T01:12:44;99703.53;;;-7.70;100.00
36600;BME280;35385;55.668;37.508;2023-02-28T01:13:46;99688.84;;;-7.71;100.00
36600;BME280;35385;55.668;37.508;2023-02-28T01:14:46;99699.88;;;-7.49;100.00
36600;BME280;35385;55.668;37.508;2023-02-28T01:15:52;99702.34;;;-7.35;100.00
36600;BME280;35385;55.668;37.508;2023-02-28T01:16:53;99656.88;;;-7.74;100.00
36600;BME280;35385;55.668;37.508;2023-02-28T01:17:53;99685.28;;;-7.61;100.00
36600;BME280;35385;55.668;37.508;2023-02-28T01:18:54;99697.28;;;-7.47;100.00
36600;BME280;35385;55.668;37.508;2023-02-28T01:19:55;99689.47;;;-7.44;100.00
36600;BME280;35385;55.668;37.508;2023-02-28T01:20:56;99686.00;;;-7.42;100.00
36600;BME280;35385;55.668;37.508;2023-02-28T01:21:56;99676.50;;;-7.47;100.00
36600;BME280;35385;55.668;37.508;2023-02-28T01:22:57;99625.09;;;-7.95;100.00
36600;BME280;35385;55.668;37.508;2023-02-28T01:23:57;99668.09;;;-7.71;100.00
36600;BME280;35385;55.668;37.508;2023-02-28T01:24:58;99674.06;;;-7.63;100.00
36600;BME280;35385;55.668;37.508;2023-02-28T01:26:16;99666.34;;;-7.66;100.00
36600;BME280;35385;55.668;37.508;2023-02-28T01:27:17;99671.44;;;-7.60;100.00
36600;BME280;35385;55.668;37.508;2023-02-28T01:28:17;99649.91;;;-7.68;100.00
36600;BME280;35385;55.668;37.508;2023-02-28T01:29:18;99654.25;;;-7.67;100.00
36600;BME280;35385;55.668;37.508;2023-02-28T01:30:18;99655.03;;;-7.60;100.00
36600;BME280;35385;55.668;37.508;2023-02-28T01:31:20;99656.75;;;-7.62;100.00
36600;BME280;35385;55.668;37.508;2023-02-28T01:32:21;99662.91;;;-7.71;100.00
36600;BME280;35385;55.668;37.508;2023-02-28T01:33:21;99673.31;;;-7.74;100.00
36600;BME280;35385;55.668;37.508;2023-02-28T01:34:22;99660.44;;;-7.83;100.00
36600;BME280;35385;55.668;37.508;2023-02-28T01:35:23;99667.38;;;-7.88;100.00
36600;BME280;35385;55.668;37.508;2023-02-28T01:36:24;99660.34;;;-7.74;100.00
36600;BME280;35385;55.668;37.508;2023-02-28T01:37:25;99646.59;;;-7.83;100.00
36600;BME280;35385;55.668;37.508;2023-02-28T01:38:26;99633.66;;;-7.88;100.00
36600;BME280;35385;55.668;37.508;2023-02-28T01:39:26;99592.53;;;-8.26;100.00
36600;BME280;35385;55.668;37.508;2023-02-28T01:40:27;99647.47;;;-7.83;100.00
36600;BME280;35385;55.668;37.508;2023-02-28T01:41:30;99640.53;;;-7.81;100.00
36600;BME280;35385;55.668;37.508;2023-02-28T01:42:31;99651.78;;;-7.82;100.00
36600;BME280;35385;55.668;37.508;2023-02-28T01:46:00;99637.00;;;-7.74;100.00
36600;BME280;35385;55.668;37.508;2023-02-28T01:47:01;99630.19;;;-7.84;100.00
36600;BME280;35385;55.668;37.508;2023-02-28T01:48:05;99635.25;;;-7.73;100.00
36600;BME280;35385;55.668;37.508;2023-02-28T01:49:12;99639.56;;;-7.69;100.00
36600;BME280;35385;55.668;37.508;2023-02-28T01:50:18;99630.81;;;-7.61;100.00
36600;BME280;35385;55.668;37.508;2023-02-28T01:51:27;99631.63;;;-7.56;100.00
36600;BME280;35385;55.668;37.508;2023-02-28T01:52:30;99631.59;;;-7.51;100.00
36600;BME280;35385;55.668;37.508;2023-02-28T01:53:38;99628.19;;;-7.56;100.00
36600;BME280;35385;55.668;37.508;2023-02-28T01:54:39;99617.09;;;-7.73;100.00
36600;BME280;35385;55.668;37.508;2023-02-28T01:55:42;99593.13;;;-7.95;100.00
36600;BME280;35385;55.668;37.508;2023-02-28T01:56:49;99609.50;;;-7.93;100.00
36600;BME280;35385;55.668;37.508;2023-02-28T01:57:55;99618.22;;;-8.00;100.00
36600;BME280;35385;55.668;37.508;2023-02-28T01:58:56;99599.34;;;-8.17;100.00
36600;BME280;35385;55.668;37.508;2023-02-28T02:00:00;99551.28;;;-8.49;100.00
36600;BME280;35385;55.668;37.508;2023-02-28T02:01:04;99600.22;;;-8.18;100.00
36600;BME280;35385;55.668;37.508;2023-02-28T02:02:05;99594.91;;;-8.02;100.00
36600;BME280;35385;55.668;37.508;2023-02-28T02:03:11;99609.56;;;-7.96;100.00
36600;BME280;35385;55.668;37.508;2023-02-28T02:04:12;99587.25;;;-8.15;100.00
36600;BME280;35385;55.668;37.508;2023-02-28T02:05:19;99600.97;;;-8.04;100.00
36600;BME280;35385;55.668;37.508;2023-02-28T02:06:19;99597.47;;;-8.00;100.00
36600;BME280;35385;55.668;37.508;2023-02-28T02:07:21;99601.84;;;-8.07;100.00
36600;BME280;35385;55.668;37.508;2023-02-28T02:08:25;99598.47;;;-8.15;100.00
36600;BME280;35385;55.668;37.508;2023-02-28T02:09:26;99593.38;;;-8.24;100.00
36600;BME280;35385;55.668;37.508;2023-02-28T02:10:32;99620.03;;;-8.10;100.00
36600;BME280;35385;55.668;37.508;2023-02-28T02:11:34;99608.75;;;-8.07;100.00
36600;BME280;35385;55.668;37.508;2023-02-28T02:22:52;99581.28;;;-8.25;100.00
36600;BME280;35385;55.668;37.508;2023-02-28T02:25:45;99509.91;;;-8.58;100.00
36600;BME280;35385;55.668;37.508;2023-02-28T02:29:16;99573.53;;;-8.30;100.00
36600;BME280;35385;55.668;37.508;2023-02-28T02:34:47;99574.31;;;-8.18;100.00
36600;BME280;35385;55.668;37.508;2023-02-28T02:36:10;99585.53;;;-8.16;100.00
36600;BME280;35385;55.668;37.508;2023-02-28T02:37:25;99566.53;;;-8.18;100.00
36600;BME280;35385;55.668;37.508;2023-02-28T02:39:06;99513.38;;;-8.62;100.00
36600;BME280;35385;55.668;37.508;2023-02-28T02:40:09;99563.31;;;-8.39;100.00
36600;BME280;35385;55.668;37.508;2023-02-28T02:41:19;99557.25;;;-8.41;100.00
36600;BME280;35385;55.668;37.508;2023-02-28T02:43:48;99549.50;;;-8.44;100.00
36600;BME280;35385;55.668;37.508;2023-02-28T02:45:14;99549.44;;;-8.35;100.00
36600;BME280;35385;55.668;37.508;2023-02-28T02:47:24;99555.31;;;-8.21;100.00
36600;BME280;35385;55.668;37.508;2023-02-28T02:48:29;99554.44;;;-8.16;100.00
36600;BME280;35385;55.668;37.508;2023-02-28T02:49:32;99503.75;;;-8.45;100.00
36600;BME280;35385;55.668;37.508;2023-02-28T02:50:43;99550.91;;;-8.08;100.00
36600;BME280;35385;55.668;37.508;2023-02-28T02:51:47;99546.81;;;-8.32;100.00
36600;BME280;35385;55.668;37.508;2023-02-28T02:52:52;99535.53;;;-8.31;100.00
36600;BME280;35385;55.668;37.508;2023-02-28T02:54:02;99541.41;;;-8.09;100.00
36600;BME280;35385;55.668;37.508;2023-02-28T02:55:05;99550.19;;;-8.27;100.00
36600;BME280;35385;55.668;37.508;2023-02-28T02:56:07;99487.47;;;-8.59;100.00
36600;BME280;35385;55.668;37.508;2023-02-28T02:57:13;99549.34;;;-8.26;100.00
36600;BME280;35385;55.668;37.508;2023-02-28T02:58:18;99540.72;;;-8.28;100.00
36600;BME280;35385;55.668;37.508;2023-02-28T02:59:22;99546.63;;;-8.15;100.00
36600;BME280;35385;55.668;37.508;2023-02-28T03:00:29;99535.44;;;-8.18;100.00
36600;BME280;35385;55.668;37.508;2023-02-28T03:01:32;99540.69;;;-8.26;100.00
36600;BME280;35385;55.668;37.508;2023-02-28T03:02:36;99533.69;;;-8.15;100.00
36600;BME280;35385;55.668;37.508;2023-02-28T03:03:38;99529.34;;;-8.14;100.00
36600;BME280;35385;55.668;37.508;2023-02-28T03:04:45;99493.28;;;-8.34;100.00
36600;BME280;35385;55.668;37.508;2023-02-28T03:05:49;99532.00;;;-8.21;100.00
36600;BME280;35385;55.668;37.508;2023-02-28T03:06:51;99499.28;;;-8.31;100.00
36600;BME280;35385;55.668;37.508;2023-02-28T03:07:55;99514.78;;;-8.28;100.00
36600;BME280;35385;55.668;37.508;2023-02-28T03:08:56;99515.66;;;-8.29;100.00
36600;BME280;35385;55.668;37.508;2023-02-28T03:09:57;99521.69;;;-8.27;100.00
36600;BME280;35385;55.668;37.508;2023-02-28T03:11:04;99510.47;;;-8.27;100.00
36600;BME280;35385;55.668;37.508;2023-02-28T03:12:11;99435.66;;;-8.59;100.00
36600;BME280;35385;55.668;37.508;2023-02-28T03:14:39;99520.84;;;-8.29;100.00
36600;BME280;35385;55.668;37.508;2023-02-28T03:15:50;99500.97;;;-8.27;100.00
36600;BME280;35385;55.668;37.508;2023-02-28T03:18:35;99492.47;;;-8.38;100.00
36600;BME280;35385;55.668;37.508;2023-02-28T03:21:06;99509.59;;;-8.25;100.00
36600;BME280;35385;55.668;37.508;2023-02-28T03:22:45;99501.97;;;-8.37;100.00
36600;BME280;35385;55.668;37.508;2023-02-28T03:24:00;99497.50;;;-8.26;100.00
36600;BME280;35385;55.668;37.508;2023-02-28T03:25:22;99500.97;;;-8.25;100.00
36600;BME280;35385;55.668;37.508;2023-02-28T03:26:27;99501.91;;;-8.32;100.00
36600;BME280;35385;55.668;37.508;2023-02-28T03:29:00;99487.28;;;-8.38;100.00
36600;BME280;35385;55.668;37.508;2023-02-28T03:30:06;99483.72;;;-8.31;100.00
36600;BME280;35385;55.668;37.508;2023-02-28T03:32:32;99482.13;;;-8.39;100.00
36600;BME280;35385;55.668;37.508;2023-02-28T03:34:15;99475.22;;;-8.39;100.00
36600;BME280;35385;55.668;37.508;2023-02-28T03:35:22;99438.28;;;-8.61;100.00
36600;BME280;35385;55.668;37.508;2023-02-28T03:36:36;99467.44;;;-8.40;100.00
36600;BME280;35385;55.668;37.508;2023-02-28T03:37:44;99465.72;;;-8.40;100.00
36600;BME280;35385;55.668;37.508;2023-02-28T03:38:56;99422.75;;;-8.64;100.00
36600;BME280;35385;55.668;37.508;2023-02-28T03:40:05;99464.03;;;-8.44;100.00
36600;BME280;35385;55.668;37.508;2023-02-28T03:41:21;99452.81;;;-8.47;100.00
36600;BME280;35385;55.668;37.508;2023-02-28T03:42:25;99416.00;;;-8.80;100.00
36600;BME280;35385;55.668;37.508;2023-02-28T03:43:30;99470.94;;;-8.47;100.00
36600;BME280;35385;55.668;37.508;2023-02-28T03:44:52;99456.28;;;-8.47;100.00
36600;BME280;35385;55.668;37.508;2023-02-28T03:45:56;99459.72;;;-8.45;100.00
36600;BME280;35385;55.668;37.508;2023-02-28T03:47:06;99451.03;;;-8.38;100.00
36600;BME280;35385;55.668;37.508;2023-02-28T03:48:22;99451.03;;;-8.41;100.00
36600;BME280;35385;55.668;37.508;2023-02-28T03:49:28;99440.78;;;-8.51;100.00
36600;BME280;35385;55.668;37.508;2023-02-28T03:51:32;99443.19;;;-8.35;100.00
36600;BME280;35385;55.668;37.508;2023-02-28T03:52:34;99454.44;;;-8.36;100.00
36600;BME280;35385;55.668;37.508;2023-02-28T03:53:38;99446.78;;;-8.46;100.00
36600;BME280;35385;55.668;37.508;2023-02-28T03:54:47;99442.38;;;-8.37;100.00
36600;BME280;35385;55.668;37.508;2023-02-28T03:55:53;99446.78;;;-8.48;100.00
36600;BME280;35385;55.668;37.508;2023-02-28T03:57:02;99434.53;;;-8.32;100.00
36600;BME280;35385;55.668;37.508;2023-02-28T03:58:35;99438.75;;;-8.25;100.00
36600;BME280;35385;55.668;37.508;2023-02-28T03:59:41;99427.75;;;-8.45;100.00
36600;BME280;35385;55.668;37.508;2023-02-28T04:00:48;99420.88;;;-8.48;100.00
36600;BME280;35385;55.668;37.508;2023-02-28T04:01:50;99311.97;;;-9.20;100.00
36600;BME280;35385;55.668;37.508;2023-02-28T04:02:51;99428.66;;;-8.48;100.00
36600;BME280;35385;55.668;37.508;2023-02-28T04:03:53;99426.97;;;-8.52;100.00
36600;BME280;35385;55.668;37.508;2023-02-28T04:04:53;99441.59;;;-8.48;100.00
36600;BME280;35385;55.668;37.508;2023-02-28T04:05:55;99381.44;;;-8.74;100.00
36600;BME280;35385;55.668;37.508;2023-02-28T04:07:05;99421.72;;;-8.47;100.00
36600;BME280;35385;55.668;37.508;2023-02-28T04:08:07;99371.06;;;-8.71;100.00
36600;BME280;35385;55.668;37.508;2023-02-28T04:09:10;99425.13;;;-8.39;100.00
36600;BME280;35385;55.668;37.508;2023-02-28T04:10:11;99403.72;;;-8.60;100.00
36600;BME280;35385;55.668;37.508;2023-02-28T04:12:20;99402.66;;;-8.39;100.00
36600;BME280;35385;55.668;37.508;2023-02-28T04:13:23;99395.75;;;-8.38;100.00
36600;BME280;35385;55.668;37.508;2023-02-28T04:14:24;99328.88;;;-8.84;100.00
36600;BME280;35385;55.668;37.508;2023-02-28T04:15:24;99396.69;;;-8.45;100.00
36600;BME280;35385;55.668;37.508;2023-02-28T04:16:28;99330.50;;;-8.75;100.00
36600;BME280;35385;55.668;37.508;2023-02-28T04:17:29;99388.88;;;-8.42;100.00
36600;BME280;35385;55.668;37.508;2023-02-28T04:18:29;99386.25;;;-8.38;100.00
36600;BME280;35385;55.668;37.508;2023-02-28T04:19:30;99390.44;;;-8.31;100.00
36600;BME280;35385;55.668;37.508;2023-02-28T04:20:30;99337.38;;;-8.68;100.00
36600;BME280;35385;55.668;37.508;2023-02-28T04:21:36;99401.59;;;-8.23;100.00
36600;BME280;35385;55.668;37.508;2023-02-28T04:22:39;99246.25;;;-9.05;100.00
36600;BME280;35385;55.668;37.508;2023-02-28T04:23:40;99346.59;;;-8.46;100.00
36600;BME280;35385;55.668;37.508;2023-02-28T04:24:40;99388.69;;;-8.29;100.00
36600;BME280;35385;55.668;37.508;2023-02-28T04:25:41;99394.72;;;-8.27;100.00
36600;BME280;35385;55.668;37.508;2023-02-28T04:26:45;99368.13;;;-8.41;100.00
36600;BME280;35385;55.668;37.508;2023-02-28T04:27:45;99360.44;;;-8.48;100.00
36600;BME280;35385;55.668;37.508;2023-02-28T04:28:46;99396.41;;;-8.23;100.00
36600;BME280;35385;55.668;37.508;2023-02-28T04:29:47;99396.44;;;-8.26;100.00
36600;BME280;35385;55.668;37.508;2023-02-28T04:30:47;99374.03;;;-8.30;100.00
36600;BME280;35385;55.668;37.508;2023-02-28T04:31:54;99401.63;;;-8.27;100.00
36600;BME280;35385;55.668;37.508;2023-02-28T04:32:58;99282.47;;;-9.04;100.00
36600;BME280;35385;55.668;37.508;2023-02-28T04:33:59;99333.03;;;-8.66;100.00
36600;BME280;35385;55.668;37.508;2023-02-28T04:35:00;99355.28;;;-8.50;100.00
36600;BME280;35385;55.668;37.508;2023-02-28T04:36:02;99382.78;;;-8.37;100.00
36600;BME280;35385;55.668;37.508;2023-02-28T04:37:03;99393.88;;;-8.27;100.00
36600;BME280;35385;55.668;37.508;2023-02-28T04:38:04;99385.31;;;-8.32;100.00
36600;BME280;35385;55.668;37.508;2023-02-28T04:39:04;99381.00;;;-8.35;100.00
36600;BME280;35385;55.668;37.508;2023-02-28T04:40:05;99396.47;;;-8.29;100.00
36600;BME280;35385;55.668;37.508;2023-02-28T04:41:06;99356.22;;;-8.55;100.00
36600;BME280;35385;55.668;37.508;2023-02-28T04:42:07;99327.88;;;-8.71;100.00
36600;BME280;35385;55.668;37.508;2023-02-28T04:43:07;99386.13;;;-8.30;100.00
36600;BME280;35385;55.668;37.508;2023-02-28T04:44:08;99384.41;;;-8.31;100.00
36600;BME280;35385;55.668;37.508;2023-02-28T04:45:09;99391.38;;;-8.35;100.00
36600;BME280;35385;55.668;37.508;2023-02-28T04:46:10;99369.84;;;-8.38;100.00
36600;BME280;35385;55.668;37.508;2023-02-28T04:47:11;99383.38;;;-8.16;100.00
36600;BME280;35385;55.668;37.508;2023-02-28T04:48:12;99385.97;;;-8.18;100.00
36600;BME280;35385;55.668;37.508;2023-02-28T04:49:12;99362.84;;;-8.32;100.00
36600;BME280;35385;55.668;37.508;2023-02-28T04:50:13;99373.09;;;-8.23;100.00
36600;BME280;35385;55.668;37.508;2023-02-28T04:51:16;99371.28;;;-8.19;100.00
36600;BME280;35385;55.668;37.508;2023-02-28T04:52:17;99367.75;;;-8.10;100.00
36600;BME280;35385;55.668;37.508;2023-02-28T04:53:18;99370.34;;;-8.10;100.00
36600;BME280;35385;55.668;37.508;2023-02-28T04:54:19;99373.00;;;-8.18;100.00
36600;BME280;35385;55.668;37.508;2023-02-28T04:55:19;99357.56;;;-8.24;100.00
36600;BME280;35385;55.668;37.508;2023-02-28T04:56:20;99369.69;;;-8.28;100.00
36600;BME280;35385;55.668;37.508;2023-02-28T04:57:21;99335.34;;;-8.42;100.00
36600;BME280;35385;55.668;37.508;2023-02-28T04:58:22;99293.22;;;-8.61;100.00
36600;BME280;35385;55.668;37.508;2023-02-28T04:59:25;99347.91;;;-8.13;100.00
36600;BME280;35385;55.668;37.508;2023-02-28T05:00:26;99337.69;;;-8.24;100.00
36600;BME280;35385;55.668;37.508;2023-02-28T05:01:28;99352.19;;;-8.10;100.00
36600;BME280;35385;55.668;37.508;2023-02-28T05:02:29;99320.44;;;-8.26;100.00
36600;BME280;35385;55.668;37.508;2023-02-28T05:03:30;99328.88;;;-8.10;100.00
36600;BME280;35385;55.668;37.508;2023-02-28T05:04:30;99345.22;;;-8.07;100.00
36600;BME280;35385;55.668;37.508;2023-02-28T05:05:34;99345.13;;;-7.99;100.00
36600;BME280;35385;55.668;37.508;2023-02-28T05:06:34;99348.66;;;-8.06;100.00
36600;BME280;35385;55.668;37.508;2023-02-28T05:07:35;99318.72;;;-8.27;100.00
36600;BME280;35385;55.668;37.508;2023-02-28T05:08:36;99345.13;;;-7.99;100.00
36600;BME280;35385;55.668;37.508;2023-02-28T05:09:36;99287.72;;;-8.33;100.00
36600;BME280;35385;55.668;37.508;2023-02-28T05:10:37;99335.69;;;-8.03;100.00
36600;BME280;35385;55.668;37.508;2023-02-28T05:11:37;99335.63;;;-8.00;100.00
36600;BME280;35385;55.668;37.508;2023-02-28T05:12:39;99336.38;;;-7.92;100.00
36600;BME280;35385;55.668;37.508;2023-02-28T05:13:39;99349.13;;;-7.75;100.00
36600;BME280;35385;55.668;37.508;2023-02-28T05:14:40;99322.28;;;-7.71;100.00
36600;BME280;35385;55.668;37.508;2023-02-28T05:15:41;99330.94;;;-7.74;100.00
36600;BME280;35385;55.668;37.508;2023-02-28T05:16:41;99315.53;;;-7.83;100.00
36600;BME280;35385;55.668;37.508;2023-02-28T05:17:42;99305.13;;;-7.80;100.00
36600;BME280;35385;55.668;37.508;2023-02-28T05:18:44;99342.97;;;-7.67;100.00
36600;BME280;35385;55.668;37.508;2023-02-28T05:19:44;99324.53;;;-7.50;100.00
36600;BME280;35385;55.668;37.508;2023-02-28T05:20:45;99303.06;;;-7.60;100.00
36600;BME280;35385;55.668;37.508;2023-02-28T05:21:54;99318.50;;;-7.51;100.00
36600;BME280;35385;55.668;37.508;2023-02-28T05:22:55;99301.53;;;-7.71;100.00
36600;BME280;35385;55.668;37.508;2023-02-28T05:23:59;99302.94;;;-7.51;100.00
36600;BME280;35385;55.668;37.508;2023-02-28T05:25:00;99296.09;;;-7.56;100.00
36600;BME280;35385;55.668;37.508;2023-02-28T05:26:01;99294.53;;;-7.65;100.00
36600;BME280;35385;55.668;37.508;2023-02-28T05:27:01;99297.91;;;-7.63;100.00
36600;BME280;35385;55.668;37.508;2023-02-28T05:28:03;99296.13;;;-7.58;100.00
36600;BME280;35385;55.668;37.508;2023-02-28T05:29:04;99300.59;;;-7.67;100.00
36600;BME280;35385;55.668;37.508;2023-02-28T05:30:06;99285.94;;;-7.70;100.00
36600;BME280;35385;55.668;37.508;2023-02-28T05:31:10;99292.00;;;-7.69;100.00
36600;BME280;35385;55.668;37.508;2023-02-28T05:32:11;99288.56;;;-7.71;100.00
36600;BME280;35385;55.668;37.508;2023-02-28T05:33:12;99283.13;;;-7.55;100.00
36600;BME280;35385;55.668;37.508;2023-02-28T05:34:13;99274.59;;;-7.64;100.00
36600;BME280;35385;55.668;37.508;2023-02-28T05:35:15;99276.16;;;-7.53;100.00
36600;BME280;35385;55.668;37.508;2023-02-28T05:36:16;99264.94;;;-7.55;100.00
36600;BME280;35385;55.668;37.508;2023-02-28T05:37:16;99203.28;;;-7.91;100.00
36600;BME280;35385;55.668;37.508;2023-02-28T05:38:17;99242.97;;;-7.86;100.00
36600;BME280;35385;55.668;37.508;2023-02-28T05:39:18;99252.19;;;-7.68;100.00
36600;BME280;35385;55.668;37.508;2023-02-28T05:40:19;99262.44;;;-7.61;100.00
36600;BME280;35385;55.668;37.508;2023-02-28T05:41:22;99265.81;;;-7.54;100.00
36600;BME280;35385;55.668;37.508;2023-02-28T05:42:22;99271.75;;;-7.47;100.00
36600;BME280;35385;55.668;37.508;2023-02-28T05:43:23;99264.69;;;-7.39;100.00
36600;BME280;35385;55.668;37.508;2023-02-28T05:44:24;99251.78;;;-7.42;100.00
36600;BME280;35385;55.668;37.508;2023-02-28T05:45:25;99243.09;;;-7.40;100.00
36600;BME280;35385;55.668;37.508;2023-02-28T05:46:25;99252.69;;;-7.46;100.00
36600;BME280;35385;55.668;37.508;2023-02-28T05:47:26;99227.88;;;-7.61;100.00
36600;BME280;35385;55.668;37.508;2023-02-28T05:48:26;99251.97;;;-7.55;100.00
36600;BME280;35385;55.668;37.508;2023-02-28T05:49:27;99177.31;;;-7.88;100.00
36600;BME280;35385;55.668;37.508;2023-02-28T05:50:27;99237.94;;;-7.43;100.00
36600;BME280;35385;55.668;37.508;2023-02-28T05:51:28;99214.69;;;-7.49;100.00
36600;BME280;35385;55.668;37.508;2023-02-28T05:52:29;99231.91;;;-7.43;100.00
36600;BME280;35385;55.668;37.508;2023-02-28T05:53:33;99174.41;;;-7.68;100.00
36600;BME280;35385;55.668;37.508;2023-02-28T05:54:33;99228.09;;;-7.24;100.00
36600;BME280;35385;55.668;37.508;2023-02-28T05:55:34;99233.53;;;-7.38;100.00
36600;BME280;35385;55.668;37.508;2023-02-28T05:56:36;99232.00;;;-7.50;100.00
36600;BME280;35385;55.668;37.508;2023-02-28T05:57:39;99228.50;;;-7.49;100.00
36600;BME280;35385;55.668;37.508;2023-02-28T05:58:39;99226.75;;;-7.46;100.00
36600;BME280;35385;55.668;37.508;2023-02-28T05:59:40;99225.00;;;-7.46;100.00